• Join FlightAware (Why Join?)
  • Login
  • US Flag 
10:15AM EST


 

Airport Tracker/Info


-or-


 

Live Flight TrackerFlight Track Log ✈ ASQ6041 ✈ 26-Apr-2013 ✈ KBHM - KORD

Flight Track Log - Related Links

Times and Time Zones

All times are in EDT time to prevent confusion due to time zone crossing. See the ASQ6041 flight status page for this flight to view local times or setup timezone preferences in your user account.

Time Position Orientation Groundspeed Altitude Reporting Facility
EDT Latitude Longitude Course Direction KTS MPH feet Rate Location/Type
07:05AM 33.5703 -86.7464 53° Northeast 160 184 1,300  Level Atlanta Center
07:06AM 33.5900 -86.7144 53° Northeast 158 182 2,600 1,860 Climbing Atlanta Center
07:07AM 33.6225 -86.6558 56° Northeast 224 258 4,500 1,680 Climbing Atlanta Center
07:08AM 33.6550 -86.5967 57° Northeast 243 280 5,800 1,800 Climbing Atlanta Center
07:09AM 33.6964 -86.5181 58° Northeast 263 303 7,900 2,160 Climbing Atlanta Center
07:10AM 33.7517 -86.4572 42° Northeast 268 308 10,200 1,560 Climbing Atlanta Center
07:11AM 33.8178 -86.3892 41° Northeast 282 325 11,100 840 Climbing Atlanta Center
07:12AM 33.8922 -86.3086 42° Northeast 320 368 11,900 900 Climbing Atlanta Center
07:13AM 33.9689 -86.2256 42° Northeast 350 403 13,000 1,200 Climbing Atlanta Center
07:14AM 34.0475 -86.1422 41° Northeast 369 425 14,300 1,200 Climbing Atlanta Center
07:15AM 34.1306 -86.0564 41° Northeast 375 432 15,500 1,200 Climbing Atlanta Center
07:16AM 34.2111 -85.9706 41° Northeast 375 432 16,700 1,200 Climbing Atlanta Center
07:17AM 34.2897 -85.8817 43° Northeast 375 432 17,900 1,020 Climbing Atlanta Center
07:18AM 34.3703 -85.7981 41° Northeast 375 432 18,800 1,080 Climbing Atlanta Center
07:19AM 34.4592 -85.7014 42° Northeast 375 432 20,100 1,200 Climbing Atlanta Center
07:20AM 34.5419 -85.6100 42° Northeast 375 432 21,300 1,560 Climbing Atlanta Center
07:21AM 34.6222 -85.5256 41° Northeast 375 432 23,300 1,800 Climbing Atlanta Center
07:22AM 34.7006 -85.4411 42° Northeast 375 432 25,000 1,200 Climbing Atlanta Center
07:23AM 34.7828 -85.3564 40° Northeast 375 432 25,700 780 Climbing Atlanta Center
07:24AM 34.8811 -85.3225 16° North 357 411 26,600 900 Climbing Atlanta Center
07:25AM 34.9817 -85.2861 17° North 363 418 27,600 960 Climbing Atlanta Center
07:26AM 35.0822 -85.2519 16° North 369 425 28,600 960 Climbing Atlanta Center
07:27AM 35.1847 -85.2181 15° North 374 430 29,600 1,020 Climbing Atlanta Center
07:28AM 35.2875 -85.1811 16° North 380 437 30,700 1,020 Climbing Atlanta Center
07:29AM 35.3900 -85.1469 15° North 380 437 31,700 960 Climbing Atlanta Center
07:30AM 35.4925 -85.1100 16° North 375 432 32,700 960 Climbing Atlanta Center
07:31AM 35.5992 -85.0731 16° North 380 437 33,700 960 Climbing Atlanta Center
07:33AM 35.7722 -85.0106 16° North 389 448 35,400 840 Climbing Indianapolis Center
07:34AM 35.8775 -84.9733 16° North 390 449 36,000 240 Climbing Indianapolis Center
07:35AM 35.9822 -84.9369 16° North 400 460 36,000  Level Indianapolis Center
07:36AM 36.0961 -84.8969 16° North 419 482 36,000  Level Indianapolis Center
07:37AM 36.2086 -84.8561 16° North 420 483 36,000  Level Indianapolis Center
07:38AM 36.3233 -84.8161 16° North 425 489 36,000  Level Indianapolis Center
07:39AM 36.4592 -84.7689 16° North 423 487 36,000  Level Indianapolis Center
07:40AM 36.5719 -84.7358 13° North 417 480 36,000  Level Indianapolis Center
07:41AM 36.6861 -84.7028 13° North 421 484 36,000  Level Indianapolis Center
07:42AM 36.7986 -84.6681 14° North 418 481 36,000  Level Indianapolis Center
07:43AM 36.9128 -84.6347 13° North 420 483 36,000  Level Indianapolis Center
07:44AM 37.0267 -84.6000 14° North 421 484 36,000  Level Indianapolis Center
07:45AM 37.1356 -84.5678 13° North 416 479 36,000  Level Indianapolis Center
07:46AM 37.2639 -84.5294 13° North 406 467 36,000  Level Indianapolis Center
07:47AM 37.3681 -84.5322 359° North 375 432 36,000  Level Indianapolis Center
07:48AM 37.4619 -84.5664 344° North 353 406 36,000  Level Indianapolis Center
07:49AM 37.5556 -84.5992 344° North 349 402 36,000  Level Indianapolis Center
07:50AM 37.6486 -84.6306 345° North 345 397 36,000  Level Indianapolis Center
07:51AM 37.7411 -84.6656 343° North 346 398 36,000  Level Indianapolis Center
07:52AM 37.8383 -84.7019 344° North 359 413 36,000  Level Indianapolis Center
07:53AM 37.9400 -84.7364 345° North 374 430 36,000  Level Indianapolis Center
07:54AM 38.0408 -84.7714 345° North 374 430 36,000  Level Indianapolis Center
07:55AM 38.1597 -84.8122 345° North 378 435 36,000  Level Indianapolis Center
07:56AM 38.2611 -84.8503 344° North 379 436 36,000  Level Indianapolis Center
07:57AM 38.3633 -84.8858 345° North 378 435 36,000  Level Indianapolis Center
07:58AM 38.4644 -84.9222 344° North 376 433 36,000  Level Indianapolis Center
07:59AM 38.5653 -84.9592 344° North 376 433 36,000 -240 Level Indianapolis Center
08:00AM 38.6725 -84.9981 344° North 381 438 35,600 -660 Descending Indianapolis Center
08:01AM 38.7761 -85.0367 344° North 385 443 34,700 -1,020 Descending Indianapolis Center
08:02AM 38.8794 -85.0733 345° North 384 442 33,600 -1,080 Descending Indianapolis Center
08:03AM 38.9736 -85.1086 344° North 358 412 32,600 -1,020 Descending Indianapolis Center
08:04AM 39.0686 -85.1433 344° North 351 404 31,600 -1,020 Descending Indianapolis Center
08:05AM 39.1644 -85.1792 344° North 356 410 30,600 -840 Descending Indianapolis Center
08:06AM 39.2647 -85.2167 344° North 367 422 30,000 -300 Descending Indianapolis Center
08:07AM 39.3839 -85.2606 344° North 378 435 30,000  Level Indianapolis Center
08:09AM 39.4872 -85.2972 345° North 381 438 30,000  Level Indianapolis Center
08:10AM 39.5881 -85.3364 343° North 378 435 30,000 -240 Level Indianapolis Center
08:11AM 39.6881 -85.3733 344° North 375 432 29,600 -540 Descending Indianapolis Center
08:12AM 39.7889 -85.4108 344° North 375 432 29,000 -420 Descending Indianapolis Center
08:13AM 39.8931 -85.4503 344° North 387 445 28,800 -1,080 Descending Indianapolis Center
08:14AM 39.9933 -85.4875 344° North 376 433 26,800 -1,380 Descending Indianapolis Center
08:15AM 40.0922 -85.5258 343° North 371 427 26,000 -840 Descending Indianapolis Center
08:16AM 40.2175 -85.5742 344° North 391 450 25,200 -900 Descending Indianapolis Center
08:17AM 40.3267 -85.6142 344° North 403 464 24,200 -600 Descending Indianapolis Center
08:18AM 40.4367 -85.6572 343° North 409 471 24,000 -120 Descending Indianapolis Center
08:19AM 40.5447 -85.6992 344° North 405 466 24,000  Level Indianapolis Center
08:20AM 40.6494 -85.7506 340° North 401 461 24,000 -300 Level Indianapolis Center
08:21AM 40.7142 -85.8611 308° West 378 435 23,400 -720 Descending Indianapolis Center
08:22AM 40.7736 -85.9794 304° West 384 442 22,600 -660 Descending Indianapolis Center
08:23AM 40.8536 -86.1408 303° West 389 448 22,000 -300 Descending Chicago Center
08:24AM 40.9114 -86.2597 303° West 385 443 22,000  Level Chicago Center
08:25AM 40.9703 -86.3775 304° West 384 442 22,000  Level Chicago Center
08:26AM 41.0286 -86.4978 303° West 387 445 22,000  Level Chicago Center
08:27AM 41.0878 -86.6203 303° West 393 452 22,000 -1,080 Level Chicago Center
08:28AM 41.1539 -86.7503 304° West 386 444 19,800 -2,220 Descending Chicago Center
08:29AM 41.2092 -86.8647 303° West 373 429 17,500 -2,340 Descending Chicago Center
08:30AM 41.2592 -86.9758 301° West 354 407 15,000 -2,460 Descending Chicago Center
08:31AM 41.3122 -87.0861 303° West 356 410 12,500 -1,980 Descending Chicago Center
08:32AM 41.3644 -87.1922 303° West 347 399 11,000 -780 Descending Chicago Center
08:33AM 41.4500 -87.2833 321° Northwest 345 397 11,000 -120 Level Chicago TRACON
08:34AM 41.5000 -87.3667 309° West 347 399 10,800 -360 Descending Chicago TRACON
08:34AM 41.5219 -87.3794 336° Northwest 346 398 10,600 -660 Descending Chicago Center
08:35AM 41.5928 -87.4583 320° Northwest 336 387 10,000 -300 Descending Chicago Center
08:36AM 41.6611 -87.5331 321° Northwest 322 371 10,000  Level Chicago Center
08:38AM 41.7297 -87.6111 320° Northwest 326 375 10,000  Level Chicago Center
08:38AM 41.8000 -87.6833 323° Northwest 317 365 10,000 -720 Level Chicago TRACON
08:39AM 41.8500 -87.7500 315° West 266 306 8,800 -1,260 Descending Chicago TRACON
08:40AM 41.8833 -87.8333 298° West 263 303 7,500 -900 Descending Chicago TRACON
08:41AM 41.8833 -87.9167 270° West 251 289 7,000 -660 Descending Chicago TRACON
08:44AM 41.8875 -88.0936 272° West 182 209 5,300 -960 Descending Chicago Center
08:44AM 41.9167 -88.1000 351° North 196 226 4,200 -1,560 Descending Chicago TRACON
08:45AM 41.9667 -88.0667 26° Northeast 213 245 2,800 -1,200 Descending Chicago TRACON
08:46AM 41.9667 -88.0000 90° East 150 173 1,800 -900 Descending Chicago TRACON
08:47AM 41.9667 -87.9500 90° East 135 155 1,100 -720 Descending Chicago TRACON